createdAt,value
2023-03-26T00:01:13.917Z,2.10
2023-03-26T00:03:41.016Z,2.00
2023-03-26T00:06:10.546Z,2.15
2023-03-26T00:08:38.538Z,1.75
2023-03-26T00:11:06.588Z,1.95
2023-03-26T00:13:33.197Z,1.85
2023-03-26T00:16:01.208Z,1.80
2023-03-26T00:18:31.527Z,1.77
2023-03-26T00:20:59.338Z,1.73
2023-03-26T00:23:28.221Z,1.77
2023-03-26T00:25:56.118Z,1.20
2023-03-26T00:28:23.644Z,1.43
2023-03-26T00:30:56.744Z,1.55
2023-03-26T00:33:23.463Z,1.25
2023-03-26T00:35:54.404Z,2.28
2023-03-26T00:38:24.836Z,1.20
2023-03-26T00:40:52.298Z,0.90
2023-03-26T00:43:20.435Z,1.17
2023-03-26T00:45:51.502Z,1.25
2023-03-26T00:48:18.584Z,0.73
2023-03-26T00:50:46.725Z,0.90
2023-03-26T00:53:14.826Z,0.80
2023-03-26T00:55:42.308Z,1.48
2023-03-26T00:58:12.193Z,0.98
2023-03-26T01:00:46.369Z,1.27
2023-03-26T01:03:26.953Z,1.08
2023-03-26T01:06:02.605Z,1.20
2023-03-26T01:08:33.262Z,0.93
2023-03-26T01:11:07.415Z,1.95
2023-03-26T01:13:39.838Z,0.80
2023-03-26T01:16:20.106Z,1.40
2023-03-26T01:18:48.617Z,1.20
2023-03-26T01:21:22.564Z,1.38
2023-03-26T01:23:57.290Z,1.50
2023-03-26T01:26:41.089Z,0.80
2023-03-26T01:29:19.432Z,0.90
2023-03-26T01:32:00.890Z,1.23
2023-03-26T01:34:49.658Z,1.17
2023-03-26T01:37:32.568Z,1.00
2023-03-26T01:40:06.961Z,1.02
2023-03-26T01:42:43.569Z,1.20
2023-03-26T01:45:15.624Z,1.13
2023-03-26T01:47:43.931Z,0.77
2023-03-26T01:50:10.465Z,0.70
2023-03-26T01:52:37.393Z,0.95
2023-03-26T01:55:04.663Z,0.75
2023-03-26T01:58:13.393Z,1.00
2023-03-26T02:00:55.073Z,1.88
2023-03-26T02:03:30.266Z,0.80
2023-03-26T02:05:57.813Z,1.73
2023-03-26T02:08:35.273Z,0.73
2023-03-26T02:11:11.746Z,0.97
2023-03-26T02:13:44.970Z,0.90
2023-03-26T02:16:14.353Z,0.77
2023-03-26T02:18:41.863Z,0.82
2023-03-26T02:21:19.969Z,1.52
2023-03-26T02:23:57.715Z,0.90
2023-03-26T02:26:25.182Z,0.80
2023-03-26T02:28:51.656Z,0.95
2023-03-26T02:31:19.385Z,1.60
2023-03-26T02:33:47.525Z,1.02
2023-03-26T02:36:14.304Z,0.70
2023-03-26T02:38:41.642Z,0.80
2023-03-26T02:41:08.131Z,1.00
2023-03-26T02:43:34.526Z,0.52
2023-03-26T02:46:01.192Z,0.98
2023-03-26T02:48:27.650Z,0.67
2023-03-26T02:50:56.936Z,0.45
2023-03-26T02:53:29.567Z,0.82
2023-03-26T02:55:57.679Z,0.77
2023-03-26T02:58:26.383Z,1.00
2023-03-26T03:00:56.909Z,0.80
2023-03-26T03:03:27.983Z,1.17
2023-03-26T03:05:55.173Z,1.02
2023-03-26T03:08:23.913Z,1.70
2023-03-26T03:11:23.515Z,2.00
2023-03-26T03:13:50.656Z,1.23
2023-03-26T03:16:17.391Z,1.33
2023-03-26T03:18:44.299Z,1.55
2023-03-26T03:21:10.902Z,1.67
2023-03-26T03:23:37.374Z,2.30
2023-03-26T03:26:04.062Z,3.60
2023-03-26T03:28:30.559Z,2.83
2023-03-26T03:30:57.614Z,3.55
2023-03-26T03:33:24.114Z,3.30
2023-03-26T03:35:51.060Z,3.15
2023-03-26T03:38:18.002Z,3.13
2023-03-26T03:40:45.098Z,2.75
2023-03-26T03:43:11.552Z,3.85
2023-03-26T03:45:37.970Z,3.15
2023-03-26T03:48:04.713Z,4.25
2023-03-26T03:50:33.106Z,3.17
2023-03-26T03:53:01.560Z,3.50
2023-03-26T03:55:28.046Z,3.65
2023-03-26T03:57:54.733Z,4.10
2023-03-26T04:00:22.621Z,4.43
2023-03-26T04:02:49.162Z,3.37
2023-03-26T04:05:15.642Z,4.53
2023-03-26T04:07:42.154Z,4.75
2023-03-26T04:10:09.803Z,4.30
2023-03-26T04:12:36.261Z,3.22
2023-03-26T04:15:03.586Z,4.07
2023-03-26T04:17:30.583Z,4.07
2023-03-26T04:19:57.364Z,3.75
2023-03-26T04:22:26.119Z,3.63
2023-03-26T04:24:54.347Z,4.32
2023-03-26T04:27:28.213Z,4.30
2023-03-26T04:29:54.983Z,4.07
2023-03-26T04:32:29.634Z,4.20
2023-03-26T04:35:00.266Z,4.25
2023-03-26T04:37:34.479Z,4.20
2023-03-26T04:40:06.302Z,4.23
2023-03-26T04:42:33.345Z,4.93
2023-03-26T04:44:59.838Z,5.32
2023-03-26T04:47:26.230Z,4.85
2023-03-26T04:49:52.692Z,4.90
2023-03-26T04:52:19.199Z,4.13
2023-03-26T04:54:46.047Z,4.20
2023-03-26T04:57:29.513Z,4.53
2023-03-26T04:59:56.289Z,4.82
2023-03-26T05:02:22.993Z,4.25
2023-03-26T05:04:50.013Z,4.13
2023-03-26T05:07:25.070Z,4.03
2023-03-26T05:09:51.443Z,4.50
2023-03-26T05:12:17.910Z,4.60
2023-03-26T05:14:44.378Z,3.55
2023-03-26T05:17:14.898Z,3.83
2023-03-26T05:19:41.705Z,4.03
2023-03-26T05:22:08.193Z,4.07
2023-03-26T05:24:34.616Z,4.43
2023-03-26T05:27:01.229Z,5.10
2023-03-26T05:29:27.834Z,4.30
2023-03-26T05:31:54.293Z,5.22
2023-03-26T05:34:24.030Z,5.18
2023-03-26T05:36:50.596Z,5.05
2023-03-26T05:39:17.088Z,4.93
2023-03-26T05:41:44.079Z,4.43
2023-03-26T05:44:10.723Z,4.55
2023-03-26T05:46:37.309Z,5.20
2023-03-26T05:49:03.728Z,4.65
2023-03-26T05:51:30.279Z,4.40
2023-03-26T05:53:56.774Z,4.07
2023-03-26T05:56:23.223Z,4.28
2023-03-26T05:58:51.488Z,4.45
2023-03-26T06:01:19.531Z,5.15
2023-03-26T06:03:47.028Z,4.95
2023-03-26T06:06:17.435Z,4.50
2023-03-26T06:09:01.395Z,4.88
2023-03-26T06:11:29.305Z,4.15
2023-03-26T06:13:55.784Z,3.75
2023-03-26T06:16:26.330Z,4.72
2023-03-26T06:18:56.685Z,4.47
2023-03-26T06:21:28.106Z,5.00
2023-03-26T06:23:55.288Z,4.88
2023-03-26T06:26:22.267Z,5.10
2023-03-26T06:28:48.844Z,4.03
2023-03-26T06:31:17.200Z,4.53
2023-03-26T06:33:43.695Z,4.05
2023-03-26T06:36:10.529Z,4.68
2023-03-26T06:38:37.012Z,3.80
2023-03-26T06:41:04.809Z,4.80
2023-03-26T06:43:33.617Z,4.67
2023-03-26T06:46:01.413Z,4.68
2023-03-26T06:48:27.934Z,4.63
2023-03-26T06:50:55.267Z,4.75
2023-03-26T06:53:21.829Z,3.42
2023-03-26T06:55:48.293Z,4.30
2023-03-26T06:58:14.714Z,4.32
2023-03-26T07:00:42.319Z,3.67
2023-03-26T07:03:09.846Z,4.18
2023-03-26T07:05:36.213Z,3.63
2023-03-26T07:08:03.110Z,3.67
2023-03-26T07:10:29.695Z,3.28
2023-03-26T07:12:56.092Z,4.10
2023-03-26T07:15:22.608Z,3.53
2023-03-26T07:17:49.091Z,3.67
2023-03-26T07:20:15.827Z,4.07
2023-03-26T07:22:42.747Z,4.38
2023-03-26T07:25:10.129Z,3.83
2023-03-26T07:28:00.678Z,5.05
2023-03-26T07:30:31.757Z,4.43
2023-03-26T07:33:09.142Z,4.60
2023-03-26T07:35:56.047Z,4.65
2023-03-26T07:38:22.349Z,5.07
2023-03-26T07:41:07.305Z,5.63
2023-03-26T07:43:51.021Z,4.70
2023-03-26T07:46:20.586Z,5.23
2023-03-26T07:48:51.821Z,5.53
2023-03-26T07:51:18.743Z,5.60
2023-03-26T07:53:45.718Z,4.78
2023-03-26T07:56:31.034Z,5.18
2023-03-26T07:59:14.045Z,6.00
2023-03-26T08:02:11.659Z,5.78
2023-03-26T08:05:19.608Z,6.13
2023-03-26T08:07:50.733Z,5.80
2023-03-26T08:10:26.075Z,7.00
2023-03-26T08:13:00.032Z,5.13
2023-03-26T08:15:40.778Z,5.60
2023-03-26T08:18:27.316Z,5.75
2023-03-26T08:21:00.795Z,5.60
2023-03-26T08:24:18.468Z,5.43
2023-03-26T08:26:45.375Z,5.20
2023-03-26T08:29:26.593Z,5.40
2023-03-26T08:31:54.821Z,5.20
2023-03-26T08:34:21.225Z,6.00
2023-03-26T08:36:47.703Z,6.00
2023-03-26T08:39:14.206Z,5.17
2023-03-26T08:42:12.932Z,4.97
2023-03-26T08:45:06.548Z,5.63
2023-03-26T08:48:10.507Z,5.63
2023-03-26T08:50:47.077Z,4.90
2023-03-26T08:53:35.590Z,5.43
2023-03-26T08:56:26.507Z,4.68
2023-03-26T08:59:12.941Z,5.40
2023-03-26T09:02:22.782Z,6.13
2023-03-26T09:04:57.586Z,6.20
2023-03-26T09:07:47.147Z,5.90
2023-03-26T09:10:33.152Z,6.75
2023-03-26T09:13:36.924Z,6.53
2023-03-26T09:16:26.343Z,6.80
2023-03-26T09:18:53.565Z,7.07
2023-03-26T09:21:37.897Z,7.73
2023-03-26T09:24:38.503Z,5.88
2023-03-26T09:27:20.839Z,6.18
2023-03-26T09:30:12.154Z,6.25
2023-03-26T09:33:11.545Z,5.47
2023-03-26T09:35:46.797Z,5.83
2023-03-26T09:38:44.815Z,5.63
2023-03-26T09:41:22.685Z,5.28
2023-03-26T09:44:14.063Z,5.13
2023-03-26T09:47:04.534Z,4.82
2023-03-26T09:49:54.372Z,4.60
2023-03-26T09:52:45.927Z,5.00
2023-03-26T09:55:43.639Z,5.38
2023-03-26T09:58:32.060Z,4.95
2023-03-26T10:01:22.201Z,3.92
2023-03-26T10:04:01.798Z,4.77
2023-03-26T10:06:31.276Z,4.75
2023-03-26T10:09:19.512Z,4.20
2023-03-26T10:12:07.725Z,3.92
2023-03-26T10:14:47.598Z,4.60
2023-03-26T10:17:25.506Z,3.77
2023-03-26T10:19:58.955Z,3.58
2023-03-26T10:23:12.989Z,3.50
2023-03-26T10:26:04.331Z,2.92
2023-03-26T10:29:04.848Z,3.50
2023-03-26T10:31:51.559Z,3.33
2023-03-26T10:34:54.545Z,2.38
2023-03-26T10:37:39.975Z,4.00
2023-03-26T10:40:19.183Z,2.70
2023-03-26T10:43:22.966Z,2.88
2023-03-26T10:46:02.596Z,2.80
2023-03-26T10:49:04.259Z,2.80
2023-03-26T10:51:30.681Z,3.00
2023-03-26T10:54:10.960Z,2.53
2023-03-26T10:56:45.777Z,2.70
2023-03-26T10:59:14.408Z,2.50
2023-03-26T11:01:53.016Z,2.13
2023-03-26T11:04:47.338Z,2.20
2023-03-26T11:07:35.774Z,1.90
2023-03-26T11:10:23.983Z,2.15
2023-03-26T11:13:38.853Z,1.53
2023-03-26T11:16:09.620Z,1.65
2023-03-26T11:19:15.863Z,2.20
2023-03-26T11:21:45.348Z,1.63
2023-03-26T11:24:41.382Z,1.40
2023-03-26T11:27:23.738Z,1.50
2023-03-26T11:30:14.094Z,1.48
2023-03-26T11:32:51.837Z,1.48
2023-03-26T11:35:39.538Z,1.55
2023-03-26T11:38:19.857Z,1.55
2023-03-26T11:40:50.940Z,1.40
2023-03-26T11:43:24.234Z,1.10
2023-03-26T11:45:51.774Z,1.45
2023-03-26T11:48:31.874Z,1.48
2023-03-26T11:51:10.729Z,1.35
2023-03-26T11:53:46.499Z,1.70
2023-03-26T11:56:26.969Z,1.27
2023-03-26T11:59:09.957Z,1.42
2023-03-26T12:02:14.818Z,1.55
2023-03-26T12:04:43.903Z,1.40
2023-03-26T12:07:17.417Z,1.90
2023-03-26T12:09:57.453Z,1.48
2023-03-26T12:12:46.977Z,1.40
2023-03-26T12:15:19.758Z,1.65
2023-03-26T12:17:48.071Z,1.67
2023-03-26T12:20:26.821Z,1.90
2023-03-26T12:22:59.138Z,1.50
2023-03-26T12:25:30.824Z,2.13
2023-03-26T12:28:04.892Z,1.70
2023-03-26T12:30:35.488Z,2.00
2023-03-26T12:33:05.414Z,1.13
2023-03-26T12:35:34.734Z,1.52
2023-03-26T12:38:24.753Z,1.58
2023-03-26T12:42:52.656Z,0.98
2023-03-26T12:44:55.536Z,0.85
2023-03-26T12:47:57.876Z,1.20
2023-03-26T12:49:33.681Z,1.08
2023-03-26T12:52:18.753Z,1.13
2023-03-26T12:55:03.142Z,1.25
2023-03-26T12:57:52.485Z,1.08
2023-03-26T13:00:40.864Z,1.37
2023-03-26T13:03:37.806Z,1.52
2023-03-26T13:06:30.888Z,0.80
2023-03-26T13:09:19.552Z,0.90
2023-03-26T13:12:01.475Z,0.63
2023-03-26T13:14:56.307Z,0.70
2023-03-26T13:17:39.951Z,0.68
2023-03-26T13:20:33.007Z,0.80
2023-03-26T13:23:20.690Z,0.70
2023-03-26T13:26:23.425Z,0.80
2023-03-26T13:29:25.845Z,0.80
2023-03-26T13:32:22.602Z,0.52
2023-03-26T13:34:58.234Z,0.65
2023-03-26T13:37:36.825Z,0.77
2023-03-26T13:40:22.250Z,0.90
2023-03-26T13:43:10.324Z,0.70
2023-03-26T13:45:47.410Z,0.75
2023-03-26T13:48:19.149Z,0.52
2023-03-26T13:50:57.112Z,0.40
2023-03-26T13:53:41.871Z,0.65
2023-03-26T13:56:12.635Z,0.80
2023-03-26T13:58:47.418Z,0.60
2023-03-26T14:01:18.814Z,0.82
2023-03-26T14:04:00.336Z,0.70
2023-03-26T14:07:00.205Z,0.88
2023-03-26T14:09:31.948Z,0.50
2023-03-26T14:12:21.155Z,0.80
2023-03-26T14:14:57.852Z,1.00
2023-03-26T14:17:30.917Z,0.50
2023-03-26T14:20:09.446Z,0.55
2023-03-26T14:22:42.221Z,0.80
2023-03-26T14:25:46.983Z,0.50
2023-03-26T14:28:29.559Z,0.50
2023-03-26T14:31:11.237Z,0.85
2023-03-26T14:33:49.902Z,0.43
2023-03-26T14:36:29.467Z,0.40
2023-03-26T14:39:31.850Z,0.35
2023-03-26T14:42:11.985Z,0.50
2023-03-26T14:44:57.012Z,0.55
2023-03-26T14:47:27.008Z,0.30
2023-03-26T14:50:21.461Z,0.50
2023-03-26T14:53:01.448Z,1.00
2023-03-26T14:55:49.578Z,0.50
2023-03-26T14:58:37.601Z,0.60
2023-03-26T15:01:26.826Z,0.38
2023-03-26T15:04:38.370Z,0.47
2023-03-26T15:07:38.484Z,0.32
2023-03-26T15:10:42.456Z,0.60
2023-03-26T15:13:44.581Z,1.23
2023-03-26T15:16:28.020Z,0.47
2023-03-26T15:19:13.557Z,0.70
2023-03-26T15:22:10.051Z,1.02
2023-03-26T15:25:01.294Z,0.57
2023-03-26T15:28:08.155Z,0.73
2023-03-26T15:30:53.465Z,0.60
2023-03-26T15:33:44.955Z,1.00
2023-03-26T15:36:34.417Z,0.82
2023-03-26T15:39:23.347Z,0.73
2023-03-26T15:42:22.115Z,0.50
2023-03-26T15:45:24.458Z,0.60
2023-03-26T15:48:12.635Z,0.40
2023-03-26T15:50:45.566Z,0.63
2023-03-26T15:53:39.363Z,0.60
2023-03-26T15:56:34.237Z,0.90
2023-03-26T15:59:39.961Z,0.98
2023-03-26T16:02:07.422Z,0.80
2023-03-26T16:04:51.500Z,1.00
2023-03-26T16:07:47.226Z,0.70
2023-03-26T16:10:35.707Z,0.80
2023-03-26T16:13:17.418Z,0.90
2023-03-26T16:15:55.857Z,0.70
2023-03-26T16:18:27.783Z,0.55
2023-03-26T16:21:04.318Z,0.80
2023-03-26T16:23:47.582Z,0.60
2023-03-26T16:26:51.662Z,0.68
2023-03-26T16:29:19.470Z,0.87
2023-03-26T16:32:07.291Z,0.60
2023-03-26T16:34:57.308Z,0.50
2023-03-26T16:37:36.173Z,0.68
2023-03-26T16:40:18.463Z,0.30
2023-03-26T16:43:22.063Z,0.80
2023-03-26T16:46:03.744Z,1.08
2023-03-26T16:48:50.418Z,0.60
2023-03-26T16:51:33.070Z,0.20
2023-03-26T16:54:04.226Z,0.30
2023-03-26T16:56:42.124Z,0.33
2023-03-26T16:59:38.863Z,0.60
2023-03-26T17:02:31.197Z,0.40
2023-03-26T17:05:25.824Z,0.40
2023-03-26T17:07:58.005Z,0.40
2023-03-26T17:10:33.407Z,0.50
2023-03-26T17:13:16.720Z,0.80
2023-03-26T17:16:14.789Z,1.00
2023-03-26T17:19:03.721Z,0.40
2023-03-26T17:21:49.859Z,0.20
2023-03-26T17:24:29.405Z,0.43
2023-03-26T17:27:18.020Z,0.45
2023-03-26T17:29:59.552Z,0.50
2023-03-26T17:32:54.350Z,0.40
2023-03-26T17:35:41.082Z,0.50
2023-03-26T17:38:16.563Z,0.37
2023-03-26T17:40:48.968Z,0.40
2023-03-26T17:43:51.189Z,0.47
2023-03-26T17:46:26.856Z,0.22
2023-03-26T17:49:11.328Z,0.73
2023-03-26T17:51:50.302Z,0.30
2023-03-26T17:54:30.535Z,0.40
2023-03-26T17:57:03.065Z,0.20
2023-03-26T17:59:31.851Z,0.63
2023-03-26T18:02:05.391Z,0.30
2023-03-26T18:04:34.889Z,0.30
2023-03-26T18:07:49.449Z,0.57
2023-03-26T18:10:48.163Z,0.50
2023-03-26T18:13:38.990Z,0.20
2023-03-26T18:16:14.468Z,0.20
2023-03-26T18:18:53.364Z,0.30
2023-03-26T18:21:43.922Z,0.25
2023-03-26T18:24:17.357Z,0.35
2023-03-26T18:26:46.809Z,0.30
2023-03-26T18:29:22.332Z,0.28
2023-03-26T18:31:54.862Z,0.70
2023-03-26T18:34:21.868Z,0.30
2023-03-26T18:37:15.273Z,0.50
2023-03-26T18:39:57.202Z,0.65
2023-03-26T18:42:24.976Z,0.60
2023-03-26T18:44:52.848Z,0.50
2023-03-26T18:47:20.445Z,0.70
2023-03-26T18:49:49.821Z,0.38
2023-03-26T18:52:19.087Z,0.30
2023-03-26T18:54:52.426Z,0.75
2023-03-26T18:57:25.786Z,0.30
2023-03-26T18:59:54.648Z,0.40
2023-03-26T19:02:22.077Z,0.50
2023-03-26T19:04:50.866Z,0.40
2023-03-26T19:07:25.081Z,0.57
2023-03-26T19:09:56.109Z,0.70
2023-03-26T19:12:27.809Z,0.50
2023-03-26T19:15:13.965Z,0.50
2023-03-26T19:17:45.072Z,0.73
2023-03-26T19:20:19.418Z,0.38
2023-03-26T19:22:47.579Z,0.43
2023-03-26T19:25:22.521Z,0.50
2023-03-26T19:27:50.694Z,0.68
2023-03-26T19:30:29.769Z,1.10
2023-03-26T19:33:13.544Z,0.63
2023-03-26T19:35:42.108Z,0.60
2023-03-26T19:38:24.752Z,0.60
2023-03-26T19:40:54.834Z,0.82
2023-03-26T19:43:22.406Z,0.40
2023-03-26T19:46:00.266Z,0.50
2023-03-26T19:48:46.175Z,0.30
2023-03-26T19:51:20.253Z,0.47
2023-03-26T19:53:53.088Z,0.38
2023-03-26T19:56:20.754Z,0.40
2023-03-26T19:58:48.560Z,0.32
2023-03-26T20:01:27.173Z,0.33
2023-03-26T20:04:00.971Z,0.40
2023-03-26T20:06:42.452Z,0.30
2023-03-26T20:09:11.300Z,0.30
2023-03-26T20:11:39.679Z,0.82
2023-03-26T20:14:19.811Z,0.20
2023-03-26T20:16:46.502Z,0.32
2023-03-26T20:19:14.510Z,0.55
2023-03-26T20:21:41.808Z,0.47
2023-03-26T20:24:17.033Z,0.30
2023-03-26T20:26:44.535Z,0.30
2023-03-26T20:29:11.687Z,0.57
2023-03-26T20:31:39.691Z,1.48
2023-03-26T20:34:19.703Z,0.35
2023-03-26T20:36:47.008Z,0.32
2023-03-26T20:39:14.176Z,0.40
2023-03-26T20:41:45.407Z,0.28
2023-03-26T20:44:15.432Z,0.40
2023-03-26T20:46:43.148Z,0.25
2023-03-26T20:49:10.784Z,0.40
2023-03-26T20:51:41.949Z,0.30
2023-03-26T20:54:21.425Z,0.73
2023-03-26T20:56:48.859Z,0.50
2023-03-26T20:59:21.958Z,0.63
2023-03-26T21:01:50.063Z,0.40
2023-03-26T21:04:17.127Z,0.60
2023-03-26T21:06:43.929Z,0.20
2023-03-26T21:09:17.505Z,0.38
2023-03-26T21:12:01.447Z,0.40
2023-03-26T21:14:32.831Z,0.20
2023-03-26T21:17:00.315Z,0.40
2023-03-26T21:19:27.261Z,0.30
2023-03-26T21:22:25.713Z,0.90
2023-03-26T21:25:11.686Z,0.95
2023-03-26T21:27:44.152Z,0.90
2023-03-26T21:30:16.742Z,0.60
2023-03-26T21:32:45.288Z,0.60
2023-03-26T21:35:13.497Z,0.50
2023-03-26T21:37:42.983Z,0.60
2023-03-26T21:40:14.835Z,0.47
2023-03-26T21:42:51.800Z,0.60
2023-03-26T21:45:19.380Z,0.40
2023-03-26T21:47:46.524Z,0.40
2023-03-26T21:50:16.402Z,0.35
2023-03-26T21:52:49.413Z,0.30
2023-03-26T21:55:17.802Z,0.40
2023-03-26T21:58:00.694Z,0.20
2023-03-26T22:00:43.302Z,0.40
2023-03-26T22:03:34.940Z,0.50
2023-03-26T22:06:13.594Z,0.35
2023-03-26T22:08:41.446Z,0.40
2023-03-26T22:11:10.132Z,0.35
2023-03-26T22:13:38.580Z,0.30
2023-03-26T22:16:07.131Z,0.35
2023-03-26T22:18:34.367Z,0.38
2023-03-26T22:21:00.977Z,0.53
2023-03-26T22:23:34.052Z,0.20
2023-03-26T22:26:00.567Z,0.20
2023-03-26T22:28:27.134Z,0.30
2023-03-26T22:30:53.682Z,0.35
2023-03-26T22:33:20.291Z,0.30
2023-03-26T22:35:47.401Z,0.77
2023-03-26T22:38:13.899Z,0.30
2023-03-26T22:40:40.345Z,0.40
2023-03-26T22:43:07.258Z,0.35
2023-03-26T22:45:33.624Z,0.30
2023-03-26T22:48:04.055Z,0.20
2023-03-26T22:50:31.048Z,0.50
2023-03-26T22:52:57.503Z,0.25
2023-03-26T22:55:27.957Z,0.45
2023-03-26T22:57:55.717Z,0.10
2023-03-26T23:00:22.248Z,0.20
2023-03-26T23:02:48.694Z,0.20
2023-03-26T23:05:18.599Z,0.38
2023-03-26T23:07:46.033Z,0.35
2023-03-26T23:10:13.321Z,0.40
2023-03-26T23:12:40.026Z,0.40
2023-03-26T23:15:07.194Z,0.20
2023-03-26T23:17:38.199Z,0.50
2023-03-26T23:20:14.869Z,0.20
2023-03-26T23:22:42.652Z,0.30
2023-03-26T23:25:10.176Z,0.30
2023-03-26T23:27:37.211Z,0.30
2023-03-26T23:30:04.795Z,0.98
2023-03-26T23:32:31.367Z,0.28
2023-03-26T23:34:57.927Z,0.50
2023-03-26T23:37:24.386Z,0.75
2023-03-26T23:39:51.421Z,0.20
2023-03-26T23:42:28.892Z,0.30
2023-03-26T23:44:56.632Z,0.22
2023-03-26T23:47:23.137Z,0.30
2023-03-26T23:49:49.784Z,0.40
2023-03-26T23:52:16.182Z,0.30
2023-03-26T23:54:42.595Z,0.28
2023-03-26T23:57:09.200Z,0.30
2023-03-26T23:59:35.974Z,0.20
